sensor_id;sensor_type;location;lat;lon;timestamp;pressure;altitude;pressure_sealevel;temperature;humidity
21960;BME280;11144;43.030;25.108;2023-11-21T00:01:02;99247.50;;;2.29;72.87
21960;BME280;11144;43.030;25.108;2023-11-21T00:02:35;99247.22;;;2.22;73.27
21960;BME280;11144;43.030;25.108;2023-11-21T00:04:10;99250.63;;;2.22;73.28
21960;BME280;11144;43.030;25.108;2023-11-21T00:05:43;99254.84;;;2.23;73.03
21960;BME280;11144;43.030;25.108;2023-11-21T00:07:16;99252.00;;;2.27;73.36
21960;BME280;11144;43.030;25.108;2023-11-21T00:08:49;99253.38;;;2.31;73.33
21960;BME280;11144;43.030;25.108;2023-11-21T00:10:22;99251.47;;;2.33;73.17
21960;BME280;11144;43.030;25.108;2023-11-21T00:11:56;99247.56;;;2.38;73.08
21960;BME280;11144;43.030;25.108;2023-11-21T00:13:31;99255.47;;;2.37;73.15
21960;BME280;11144;43.030;25.108;2023-11-21T00:15:04;99241.81;;;2.35;73.36
21960;BME280;11144;43.030;25.108;2023-11-21T00:16:37;99237.34;;;2.37;73.08
21960;BME280;11144;43.030;25.108;2023-11-21T00:18:10;99238.03;;;2.39;73.36
21960;BME280;11144;43.030;25.108;2023-11-21T00:19:43;99237.34;;;2.37;72.90
21960;BME280;11144;43.030;25.108;2023-11-21T00:21:16;99237.16;;;2.29;72.91
21960;BME280;11144;43.030;25.108;2023-11-21T00:22:49;99238.53;;;2.23;72.97
21960;BME280;11144;43.030;25.108;2023-11-21T00:24:22;99235.94;;;2.23;73.31
21960;BME280;11144;43.030;25.108;2023-11-21T00:25:56;99242.63;;;2.26;73.25
21960;BME280;11144;43.030;25.108;2023-11-21T00:27:31;99242.34;;;2.29;73.23
21960;BME280;11144;43.030;25.108;2023-11-21T00:29:03;99244.69;;;2.32;73.62
21960;BME280;11144;43.030;25.108;2023-11-21T00:30:39;99249.03;;;2.31;73.63
21960;BME280;11144;43.030;25.108;2023-11-21T00:32:13;99249.84;;;2.32;73.25
21960;BME280;11144;43.030;25.108;2023-11-21T00:33:45;99251.75;;;2.30;73.84
21960;BME280;11144;43.030;25.108;2023-11-21T00:35:19;99244.81;;;2.30;73.72
21960;BME280;11144;43.030;25.108;2023-11-21T00:36:52;99253.50;;;2.29;73.30
21960;BME280;11144;43.030;25.108;2023-11-21T00:38:26;99250.78;;;2.31;73.39
21960;BME280;11144;43.030;25.108;2023-11-21T00:39:59;99250.78;;;2.31;74.08
21960;BME280;11144;43.030;25.108;2023-11-21T00:41:32;99248.47;;;2.28;73.79
21960;BME280;11144;43.030;25.108;2023-11-21T00:43:07;99224.34;;;2.17;73.55
21960;BME280;11144;43.030;25.108;2023-11-21T00:44:39;99248.88;;;2.33;73.48
21960;BME280;11144;43.030;25.108;2023-11-21T00:46:13;99245.63;;;2.31;73.37
21960;BME280;11144;43.030;25.108;2023-11-21T00:47:46;99251.47;;;2.33;73.36
21960;BME280;11144;43.030;25.108;2023-11-21T00:49:19;99249.41;;;2.27;73.10
21960;BME280;11144;43.030;25.108;2023-11-21T00:50:53;99249.66;;;2.23;73.27
21960;BME280;11144;43.030;25.108;2023-11-21T00:52:28;99254.16;;;2.21;73.44
21960;BME280;11144;43.030;25.108;2023-11-21T00:54:02;99251.28;;;2.15;72.93
21960;BME280;11144;43.030;25.108;2023-11-21T00:55:34;99238.88;;;2.09;73.53
21960;BME280;11144;43.030;25.108;2023-11-21T00:57:08;99250.28;;;2.06;73.50
21960;BME280;11144;43.030;25.108;2023-11-21T00:58:41;99248.66;;;2.05;73.50
21960;BME280;11144;43.030;25.108;2023-11-21T01:00:16;99236.22;;;1.99;73.49
21960;BME280;11144;43.030;25.108;2023-11-21T01:01:50;99247.25;;;2.01;73.33
21960;BME280;11144;43.030;25.108;2023-11-21T01:03:22;99242.38;;;1.98;73.50
21960;BME280;11144;43.030;25.108;2023-11-21T01:04:56;99240.72;;;1.97;73.29
21960;BME280;11144;43.030;25.108;2023-11-21T01:06:28;99243.97;;;1.99;73.20
21960;BME280;11144;43.030;25.108;2023-11-21T01:08:02;99238.25;;;1.96;73.05
21960;BME280;11144;43.030;25.108;2023-11-21T01:09:35;99240.31;;;1.92;73.19
21960;BME280;11144;43.030;25.108;2023-11-21T01:11:07;99239.72;;;1.89;73.37
21960;BME280;11144;43.030;25.108;2023-11-21T01:12:42;99240.09;;;1.84;73.77
21960;BME280;11144;43.030;25.108;2023-11-21T01:14:16;99235.59;;;1.77;73.52
21960;BME280;11144;43.030;25.108;2023-11-21T01:15:49;99236.66;;;1.74;74.02
21960;BME280;11144;43.030;25.108;2023-11-21T01:17:24;99235.16;;;1.72;73.82
21960;BME280;11144;43.030;25.108;2023-11-21T01:18:57;99245.63;;;1.70;73.80
21960;BME280;11144;43.030;25.108;2023-11-21T01:20:31;99240.47;;;1.70;74.68
21960;BME280;11144;43.030;25.108;2023-11-21T01:22:03;99236.09;;;1.71;74.12
21960;BME280;11144;43.030;25.108;2023-11-21T01:23:37;99245.09;;;1.76;74.09
21960;BME280;11144;43.030;25.108;2023-11-21T01:25:09;99227.94;;;1.75;73.88
21960;BME280;11144;43.030;25.108;2023-11-21T01:26:43;99239.66;;;1.79;73.81
21960;BME280;11144;43.030;25.108;2023-11-21T01:28:17;99238.72;;;1.80;73.91
21960;BME280;11144;43.030;25.108;2023-11-21T01:29:53;99237.78;;;1.81;73.46
21960;BME280;11144;43.030;25.108;2023-11-21T01:31:26;99233.31;;;1.83;73.98
21960;BME280;11144;43.030;25.108;2023-11-21T01:33:02;99226.63;;;1.81;74.12
21960;BME280;11144;43.030;25.108;2023-11-21T01:34:36;99221.72;;;1.78;73.78
21960;BME280;11144;43.030;25.108;2023-11-21T01:36:10;99227.84;;;1.77;73.83
21960;BME280;11144;43.030;25.108;2023-11-21T01:37:42;99229.59;;;1.76;73.85
21960;BME280;11144;43.030;25.108;2023-11-21T01:39:16;99223.06;;;1.72;74.50
21960;BME280;11144;43.030;25.108;2023-11-21T01:40:55;99231.75;;;1.71;74.24
21960;BME280;11144;43.030;25.108;2023-11-21T01:42:29;99220.72;;;1.69;73.90
21960;BME280;11144;43.030;25.108;2023-11-21T01:44:01;99226.72;;;1.70;73.91
21960;BME280;11144;43.030;25.108;2023-11-21T01:45:37;99234.31;;;1.71;73.74
21960;BME280;11144;43.030;25.108;2023-11-21T01:47:10;99226.31;;;1.74;74.15
21960;BME280;11144;43.030;25.108;2023-11-21T01:48:44;99230.53;;;1.75;74.11
21960;BME280;11144;43.030;25.108;2023-11-21T01:50:18;99229.59;;;1.76;73.58
21960;BME280;11144;43.030;25.108;2023-11-21T01:51:52;99225.25;;;1.77;74.04
21960;BME280;11144;43.030;25.108;2023-11-21T01:53:26;99226.06;;;1.77;74.11
21960;BME280;11144;43.030;25.108;2023-11-21T01:55:00;99218.56;;;1.74;73.91
21960;BME280;11144;43.030;25.108;2023-11-21T01:56:32;99212.72;;;1.72;74.08
21960;BME280;11144;43.030;25.108;2023-11-21T01:58:06;99215.69;;;1.68;73.95
21960;BME280;11144;43.030;25.108;2023-11-21T01:59:40;99221.91;;;1.65;73.76
21960;BME280;11144;43.030;25.108;2023-11-21T02:01:17;99217.13;;;1.61;74.10
21960;BME280;11144;43.030;25.108;2023-11-21T02:02:51;99225.94;;;1.58;73.96
21960;BME280;11144;43.030;25.108;2023-11-21T02:04:23;99217.06;;;1.51;73.88
21960;BME280;11144;43.030;25.108;2023-11-21T02:05:57;99224.13;;;1.49;74.00
21960;BME280;11144;43.030;25.108;2023-11-21T02:07:30;99220.63;;;1.50;74.05
21960;BME280;11144;43.030;25.108;2023-11-21T02:09:04;99220.72;;;1.48;74.17
21960;BME280;11144;43.030;25.108;2023-11-21T02:10:37;99219.66;;;1.51;74.27
21960;BME280;11144;43.030;25.108;2023-11-21T02:12:10;99224.81;;;1.51;74.19
21960;BME280;11144;43.030;25.108;2023-11-21T02:13:43;99194.25;;;1.35;74.07
21960;BME280;11144;43.030;25.108;2023-11-21T02:15:18;99221.69;;;1.47;74.23
21960;BME280;11144;43.030;25.108;2023-11-21T02:16:55;99211.72;;;1.43;74.10
21960;BME280;11144;43.030;25.108;2023-11-21T02:18:27;99220.47;;;1.52;73.99
21960;BME280;11144;43.030;25.108;2023-11-21T02:20:01;99217.06;;;1.51;73.94
21960;BME280;11144;43.030;25.108;2023-11-21T02:21:34;99218.81;;;1.50;73.88
21960;BME280;11144;43.030;25.108;2023-11-21T02:23:13;99225.09;;;1.48;73.89
21960;BME280;11144;43.030;25.108;2023-11-21T02:24:46;99221.00;;;1.45;73.62
21960;BME280;11144;43.030;25.108;2023-11-21T02:26:20;99219.63;;;1.41;73.88
21960;BME280;11144;43.030;25.108;2023-11-21T02:27:52;99218.56;;;1.33;73.85
21960;BME280;11144;43.030;25.108;2023-11-21T02:29:26;99218.38;;;1.25;73.90
21960;BME280;11144;43.030;25.108;2023-11-21T02:31:00;99212.53;;;1.23;74.34
21960;BME280;11144;43.030;25.108;2023-11-21T02:32:34;99225.44;;;1.23;74.33
21960;BME280;11144;43.030;25.108;2023-11-21T02:34:19;99223.78;;;1.22;74.50
21960;BME280;11144;43.030;25.108;2023-11-21T02:35:52;99223.78;;;1.22;74.46
21960;BME280;11144;43.030;25.108;2023-11-21T02:37:27;99221.94;;;1.24;74.42
21960;BME280;11144;43.030;25.108;2023-11-21T02:39:02;99213.22;;;1.25;74.46
21960;BME280;11144;43.030;25.108;2023-11-21T02:40:34;99223.56;;;1.25;75.10
21960;BME280;11144;43.030;25.108;2023-11-21T02:42:07;99208.75;;;1.27;74.75
21960;BME280;11144;43.030;25.108;2023-11-21T02:43:40;99214.59;;;1.29;74.45
21960;BME280;11144;43.030;25.108;2023-11-21T02:45:14;99208.88;;;1.25;74.50
21960;BME280;11144;43.030;25.108;2023-11-21T02:46:49;99212.16;;;1.27;74.53
21960;BME280;11144;43.030;25.108;2023-11-21T02:48:22;99204.56;;;1.26;74.46
21960;BME280;11144;43.030;25.108;2023-11-21T02:49:57;99206.44;;;1.24;74.49
21960;BME280;11144;43.030;25.108;2023-11-21T02:51:31;99208.06;;;1.25;74.58
21960;BME280;11144;43.030;25.108;2023-11-21T02:53:03;99189.13;;;1.15;74.68
21960;BME280;11144;43.030;25.108;2023-11-21T02:54:39;99196.66;;;1.27;74.61
21960;BME280;11144;43.030;25.108;2023-11-21T02:56:11;99211.34;;;1.27;74.28
21960;BME280;11144;43.030;25.108;2023-11-21T02:57:46;99210.88;;;1.22;74.08
21960;BME280;11144;43.030;25.108;2023-11-21T02:59:18;99215.88;;;1.14;74.30
21960;BME280;11144;43.030;25.108;2023-11-21T03:00:52;99209.19;;;1.11;74.73
21960;BME280;11144;43.030;25.108;2023-11-21T03:02:25;99219.41;;;1.13;74.88
21960;BME280;11144;43.030;25.108;2023-11-21T03:03:59;99204.72;;;1.13;74.82
21960;BME280;11144;43.030;25.108;2023-11-21T03:05:31;99225.25;;;1.15;74.85
21960;BME280;11144;43.030;25.108;2023-11-21T03:07:07;99212.34;;;1.15;74.80
21960;BME280;11144;43.030;25.108;2023-11-21T03:08:40;99218.22;;;1.17;74.84
21960;BME280;11144;43.030;25.108;2023-11-21T03:10:15;99212.91;;;1.18;74.74
21960;BME280;11144;43.030;25.108;2023-11-21T03:11:48;99214.56;;;1.19;74.84
21960;BME280;11144;43.030;25.108;2023-11-21T03:13:21;99220.53;;;1.20;74.63
21960;BME280;11144;43.030;25.108;2023-11-21T03:14:54;99216.41;;;1.17;74.81
21960;BME280;11144;43.030;25.108;2023-11-21T03:16:26;99213.97;;;1.16;74.91
21960;BME280;11144;43.030;25.108;2023-11-21T03:18:00;99215.03;;;1.13;75.04
21960;BME280;11144;43.030;25.108;2023-11-21T03:19:34;99195.13;;;1.04;74.64
21960;BME280;11144;43.030;25.108;2023-11-21T03:21:08;99210.94;;;1.11;74.69
21960;BME280;11144;43.030;25.108;2023-11-21T03:22:40;99214.47;;;1.10;74.79
21960;BME280;11144;43.030;25.108;2023-11-21T03:24:14;99202.44;;;0.99;74.76
21960;BME280;11144;43.030;25.108;2023-11-21T03:25:50;99212.50;;;1.02;74.82
21960;BME280;11144;43.030;25.108;2023-11-21T03:27:23;99205.72;;;1.01;74.92
21960;BME280;11144;43.030;25.108;2023-11-21T03:28:56;99217.34;;;0.96;74.81
21960;BME280;11144;43.030;25.108;2023-11-21T03:30:29;99210.69;;;0.82;74.75
21960;BME280;11144;43.030;25.108;2023-11-21T03:32:02;99208.97;;;0.71;74.73
21960;BME280;11144;43.030;25.108;2023-11-21T03:33:35;99203.81;;;0.71;75.35
21960;BME280;11144;43.030;25.108;2023-11-21T03:35:08;99202.91;;;0.72;75.32
21960;BME280;11144;43.030;25.108;2023-11-21T03:36:43;99195.38;;;0.69;75.07
21960;BME280;11144;43.030;25.108;2023-11-21T03:38:16;99202.19;;;0.70;75.05
21960;BME280;11144;43.030;25.108;2023-11-21T03:39:49;99190.47;;;0.66;75.02
21960;BME280;11144;43.030;25.108;2023-11-21T03:41:23;99196.44;;;0.67;75.14
21960;BME280;11144;43.030;25.108;2023-11-21T03:42:56;99192.81;;;0.69;75.11
21960;BME280;11144;43.030;25.108;2023-11-21T03:44:29;99196.44;;;0.67;75.04
21960;BME280;11144;43.030;25.108;2023-11-21T03:46:01;99195.63;;;0.66;75.08
21960;BME280;11144;43.030;25.108;2023-11-21T03:47:35;99195.63;;;0.66;75.67
21960;BME280;11144;43.030;25.108;2023-11-21T03:49:07;99209.25;;;0.68;75.30
21960;BME280;11144;43.030;25.108;2023-11-21T03:50:41;99202.19;;;0.70;75.22
21960;BME280;11144;43.030;25.108;2023-11-21T03:52:13;99203.81;;;0.71;75.42
21960;BME280;11144;43.030;25.108;2023-11-21T03:53:47;99212.94;;;0.75;75.70
21960;BME280;11144;43.030;25.108;2023-11-21T03:55:19;99216.94;;;0.80;75.36
21960;BME280;11144;43.030;25.108;2023-11-21T03:56:54;99207.78;;;0.75;75.23
21960;BME280;11144;43.030;25.108;2023-11-21T03:58:26;99223.50;;;0.84;75.44
21960;BME280;11144;43.030;25.108;2023-11-21T04:00:00;99224.34;;;0.84;75.15
21960;BME280;11144;43.030;25.108;2023-11-21T04:01:32;99228.53;;;0.85;75.45
21960;BME280;11144;43.030;25.108;2023-11-21T04:03:05;99218.44;;;0.82;75.14
21960;BME280;11144;43.030;25.108;2023-11-21T04:04:38;99222.53;;;0.85;75.35
21960;BME280;11144;43.030;25.108;2023-11-21T04:06:11;99230.88;;;0.88;75.32
21960;BME280;11144;43.030;25.108;2023-11-21T04:07:44;99234.25;;;0.89;75.35
21960;BME280;11144;43.030;25.108;2023-11-21T04:09:17;99236.03;;;0.88;75.22
21960;BME280;11144;43.030;25.108;2023-11-21T04:10:49;99242.81;;;0.89;75.28
21960;BME280;11144;43.030;25.108;2023-11-21T04:12:26;99234.88;;;0.81;75.09
21960;BME280;11144;43.030;25.108;2023-11-21T04:13:59;99225.84;;;0.75;74.96
21960;BME280;11144;43.030;25.108;2023-11-21T04:15:32;99229.25;;;0.76;74.96
21960;BME280;11144;43.030;25.108;2023-11-21T04:17:05;99232.19;;;0.71;75.16
21960;BME280;11144;43.030;25.108;2023-11-21T04:18:38;99233.19;;;0.59;74.83
21960;BME280;11144;43.030;25.108;2023-11-21T04:20:11;99232.72;;;0.54;74.95
21960;BME280;11144;43.030;25.108;2023-11-21T04:21:45;99230.50;;;0.50;75.37
21960;BME280;11144;43.030;25.108;2023-11-21T04:23:18;99233.66;;;0.42;75.41
21960;BME280;11144;43.030;25.108;2023-11-21T04:24:51;99249.50;;;0.38;75.09
21960;BME280;11144;43.030;25.108;2023-11-21T04:26:23;99245.50;;;0.34;75.33
21960;BME280;11144;43.030;25.108;2023-11-21T04:27:58;99251.63;;;0.33;75.47
21960;BME280;11144;43.030;25.108;2023-11-21T04:29:31;99237.91;;;0.32;75.46
21960;BME280;11144;43.030;25.108;2023-11-21T04:31:04;99243.75;;;0.34;75.45
21960;BME280;11144;43.030;25.108;2023-11-21T04:32:37;99245.41;;;0.35;75.37
21960;BME280;11144;43.030;25.108;2023-11-21T04:34:11;99236.03;;;0.34;75.31
21960;BME280;11144;43.030;25.108;2023-11-21T04:35:45;99235.09;;;0.35;75.55
21960;BME280;11144;43.030;25.108;2023-11-21T04:37:17;99205.81;;;0.25;75.45
21960;BME280;11144;43.030;25.108;2023-11-21T04:38:50;99225.22;;;0.40;75.64
21960;BME280;11144;43.030;25.108;2023-11-21T04:40:22;99222.44;;;0.43;75.42
21960;BME280;11144;43.030;25.108;2023-11-21T04:41:56;99211.16;;;0.44;75.67
21960;BME280;11144;43.030;25.108;2023-11-21T04:43:30;99206.00;;;0.44;75.61
21960;BME280;11144;43.030;25.108;2023-11-21T04:45:04;99200.03;;;0.44;75.80
21960;BME280;11144;43.030;25.108;2023-11-21T04:46:40;99204.59;;;0.40;75.84
21960;BME280;11144;43.030;25.108;2023-11-21T04:48:14;99214.91;;;0.40;76.04
21960;BME280;11144;43.030;25.108;2023-11-21T04:49:46;99220.78;;;0.42;76.21
21960;BME280;11144;43.030;25.108;2023-11-21T04:51:20;99224.19;;;0.43;76.34
21960;BME280;11144;43.030;25.108;2023-11-21T04:52:52;99218.66;;;0.47;76.30
21960;BME280;11144;43.030;25.108;2023-11-21T04:54:26;99217.47;;;0.51;76.10
21960;BME280;11144;43.030;25.108;2023-11-21T04:55:59;99210.44;;;0.53;75.96
21960;BME280;11144;43.030;25.108;2023-11-21T04:57:33;99209.38;;;0.56;75.91
21960;BME280;11144;43.030;25.108;2023-11-21T04:59:06;99211.84;;;0.57;75.83
21960;BME280;11144;43.030;25.108;2023-11-21T05:00:40;99218.50;;;0.60;76.29
21960;BME280;11144;43.030;25.108;2023-11-21T05:02:12;99211.59;;;0.60;76.57
21960;BME280;11144;43.030;25.108;2023-11-21T05:04:01;99209.25;;;0.68;76.01
21960;BME280;11144;43.030;25.108;2023-11-21T05:05:34;99221.78;;;0.73;76.02
21960;BME280;11144;43.030;25.108;2023-11-21T05:07:08;99219.06;;;0.74;75.88
21960;BME280;11144;43.030;25.108;2023-11-21T05:08:40;99226.69;;;0.76;76.28
21960;BME280;11144;43.030;25.108;2023-11-21T05:10:14;99230.78;;;0.79;76.29
21960;BME280;11144;43.030;25.108;2023-11-21T05:11:47;99230.66;;;0.80;76.17
21960;BME280;11144;43.030;25.108;2023-11-21T05:13:20;99233.31;;;0.90;75.89
21960;BME280;11144;43.030;25.108;2023-11-21T05:14:55;99241.53;;;0.95;76.27
21960;BME280;11144;43.030;25.108;2023-11-21T05:16:27;99250.78;;;0.97;76.10
21960;BME280;11144;43.030;25.108;2023-11-21T05:18:00;99248.56;;;0.93;75.89
21960;BME280;11144;43.030;25.108;2023-11-21T05:19:34;99271.19;;;1.00;75.58
21960;BME280;11144;43.030;25.108;2023-11-21T05:21:07;99268.72;;;0.99;75.76
21960;BME280;11144;43.030;25.108;2023-11-21T05:22:41;99273.88;;;0.99;75.74
21960;BME280;11144;43.030;25.108;2023-11-21T05:24:14;99271.31;;;0.99;75.71
21960;BME280;11144;43.030;25.108;2023-11-21T05:25:47;99272.69;;;1.03;75.92
21960;BME280;11144;43.030;25.108;2023-11-21T05:27:20;99272.84;;;1.01;75.79
21960;BME280;11144;43.030;25.108;2023-11-21T05:28:53;99275.28;;;1.03;76.30
21960;BME280;11144;43.030;25.108;2023-11-21T05:30:27;99283.72;;;1.05;76.32
21960;BME280;11144;43.030;25.108;2023-11-21T05:32:00;99280.78;;;1.09;76.11
21960;BME280;11144;43.030;25.108;2023-11-21T05:33:33;99278.66;;;1.14;76.24
21960;BME280;11144;43.030;25.108;2023-11-21T05:35:06;99276.75;;;1.16;75.73
21960;BME280;11144;43.030;25.108;2023-11-21T05:36:44;99276.63;;;1.18;75.98
21960;BME280;11144;43.030;25.108;2023-11-21T05:38:18;99268.66;;;1.21;75.82
21960;BME280;11144;43.030;25.108;2023-11-21T05:39:53;99257.13;;;1.25;76.04
21960;BME280;11144;43.030;25.108;2023-11-21T05:41:28;99258.66;;;1.27;75.81
21960;BME280;11144;43.030;25.108;2023-11-21T05:43:01;99256.75;;;1.29;75.71
21960;BME280;11144;43.030;25.108;2023-11-21T05:44:35;99251.81;;;1.26;75.77
21960;BME280;11144;43.030;25.108;2023-11-21T05:46:08;99242.31;;;1.27;75.91
21960;BME280;11144;43.030;25.108;2023-11-21T05:47:43;99244.78;;;1.28;75.92
21960;BME280;11144;43.030;25.108;2023-11-21T05:49:18;99249.13;;;1.28;75.80
21960;BME280;11144;43.030;25.108;2023-11-21T05:50:53;99249.69;;;1.31;75.86
21960;BME280;11144;43.030;25.108;2023-11-21T05:52:27;99241.41;;;1.28;75.96
21960;BME280;11144;43.030;25.108;2023-11-21T05:53:59;99251.28;;;1.23;76.07
21960;BME280;11144;43.030;25.108;2023-11-21T05:55:32;99248.00;;;1.21;76.52
21960;BME280;11144;43.030;25.108;2023-11-21T05:57:05;99248.31;;;1.27;76.19
21960;BME280;11144;43.030;25.108;2023-11-21T05:58:38;99255.03;;;1.19;75.87
21960;BME280;11144;43.030;25.108;2023-11-21T06:00:13;99258.81;;;1.15;76.42
21960;BME280;11144;43.030;25.108;2023-11-21T06:01:53;99251.53;;;1.09;76.18
21960;BME280;11144;43.030;25.108;2023-11-21T06:03:26;99245.69;;;1.07;76.52
21960;BME280;11144;43.030;25.108;2023-11-21T06:04:59;99245.22;;;1.13;76.49
21960;BME280;11144;43.030;25.108;2023-11-21T06:06:32;99254.22;;;1.18;76.36
21960;BME280;11144;43.030;25.108;2023-11-21T06:08:05;99241.19;;;1.20;76.42
21960;BME280;11144;43.030;25.108;2023-11-21T06:09:39;99254.53;;;1.25;76.38
21960;BME280;11144;43.030;25.108;2023-11-21T06:11:11;99255.38;;;1.25;76.42
21960;BME280;11144;43.030;25.108;2023-11-21T06:12:46;99252.28;;;1.31;76.53
21960;BME280;11144;43.030;25.108;2023-11-21T06:14:18;99251.66;;;1.39;76.43
21960;BME280;11144;43.030;25.108;2023-11-21T06:15:52;99247.50;;;1.47;76.27
21960;BME280;11144;43.030;25.108;2023-11-21T06:17:25;99249.34;;;1.57;76.27
21960;BME280;11144;43.030;25.108;2023-11-21T06:19:00;99242.84;;;1.62;76.08
21960;BME280;11144;43.030;25.108;2023-11-21T06:20:33;99244.34;;;1.65;76.05
21960;BME280;11144;43.030;25.108;2023-11-21T06:22:09;99245.50;;;1.72;76.20
21960;BME280;11144;43.030;25.108;2023-11-21T06:23:42;99249.06;;;1.80;76.16
21960;BME280;11144;43.030;25.108;2023-11-21T06:25:16;99249.25;;;1.88;76.40
21960;BME280;11144;43.030;25.108;2023-11-21T06:26:49;99248.38;;;1.99;75.97
21960;BME280;11144;43.030;25.108;2023-11-21T06:28:22;99246.75;;;2.07;76.09
21960;BME280;11144;43.030;25.108;2023-11-21T06:29:56;99253.31;;;2.11;76.04
21960;BME280;11144;43.030;25.108;2023-11-21T06:31:28;99251.53;;;2.12;75.49
21960;BME280;11144;43.030;25.108;2023-11-21T06:33:03;99243.91;;;2.10;75.70
21960;BME280;11144;43.030;25.108;2023-11-21T06:34:38;99243.09;;;2.10;75.63
21960;BME280;11144;43.030;25.108;2023-11-21T06:36:11;99242.81;;;2.13;75.52
21960;BME280;11144;43.030;25.108;2023-11-21T06:37:44;99220.22;;;2.05;75.43
21960;BME280;11144;43.030;25.108;2023-11-21T06:39:21;99239.03;;;2.17;75.46
21960;BME280;11144;43.030;25.108;2023-11-21T06:40:55;99241.81;;;2.25;75.46
21960;BME280;11144;43.030;25.108;2023-11-21T06:42:28;99239.75;;;2.29;75.35
21960;BME280;11144;43.030;25.108;2023-11-21T06:44:02;99238.81;;;2.30;75.43
21960;BME280;11144;43.030;25.108;2023-11-21T06:45:34;99243.84;;;2.31;75.62
21960;BME280;11144;43.030;25.108;2023-11-21T06:47:08;99233.66;;;2.39;75.72
21960;BME280;11144;43.030;25.108;2023-11-21T06:48:42;99238.19;;;2.47;75.59
21960;BME280;11144;43.030;25.108;2023-11-21T06:50:16;99232.38;;;2.54;75.45
21960;BME280;11144;43.030;25.108;2023-11-21T06:51:48;99238.50;;;2.63;75.54
21960;BME280;11144;43.030;25.108;2023-11-21T06:53:21;99235.63;;;2.66;75.43
21960;BME280;11144;43.030;25.108;2023-11-21T06:54:54;99234.56;;;2.78;75.41
21960;BME280;11144;43.030;25.108;2023-11-21T06:56:27;99241.00;;;2.93;75.31
21960;BME280;11144;43.030;25.108;2023-11-21T06:58:00;99242.78;;;3.02;75.32
21960;BME280;11144;43.030;25.108;2023-11-21T06:59:33;99242.78;;;3.12;75.15
21960;BME280;11144;43.030;25.108;2023-11-21T07:01:06;99247.44;;;3.27;75.41
21960;BME280;11144;43.030;25.108;2023-11-21T07:02:39;99250.94;;;3.45;75.30
21960;BME280;11144;43.030;25.108;2023-11-21T07:04:13;99260.22;;;3.67;75.70
21960;BME280;11144;43.030;25.108;2023-11-21T07:05:47;99252.38;;;3.96;75.89
21960;BME280;11144;43.030;25.108;2023-11-21T07:07:19;99254.03;;;4.24;76.26
21960;BME280;11144;43.030;25.108;2023-11-21T07:08:52;99256.94;;;4.48;75.27
21960;BME280;11144;43.030;25.108;2023-11-21T07:10:25;99260.09;;;4.69;75.23
21960;BME280;11144;43.030;25.108;2023-11-21T07:11:58;99259.38;;;4.94;75.13
21960;BME280;11144;43.030;25.108;2023-11-21T07:13:31;99253.75;;;5.16;75.02
21960;BME280;11144;43.030;25.108;2023-11-21T07:15:06;99249.81;;;5.30;75.24
21960;BME280;11144;43.030;25.108;2023-11-21T07:16:41;99242.31;;;5.45;75.07
21960;BME280;11144;43.030;25.108;2023-11-21T07:18:14;99243.09;;;5.63;73.97
21960;BME280;11144;43.030;25.108;2023-11-21T07:19:49;99236.69;;;5.75;73.20
21960;BME280;11144;43.030;25.108;2023-11-21T07:21:22;99236.59;;;5.84;73.25
21960;BME280;11144;43.030;25.108;2023-11-21T07:22:56;99232.88;;;5.87;71.41
21960;BME280;11144;43.030;25.108;2023-11-21T07:24:30;99235.56;;;5.95;71.89
21960;BME280;11144;43.030;25.108;2023-11-21T07:26:04;99222.97;;;6.16;72.55
21960;BME280;11144;43.030;25.108;2023-11-21T07:27:40;99228.63;;;6.45;72.55
21960;BME280;11144;43.030;25.108;2023-11-21T07:29:14;99222.38;;;6.88;72.75
21960;BME280;11144;43.030;25.108;2023-11-21T07:30:46;99223.72;;;7.32;72.24
21960;BME280;11144;43.030;25.108;2023-11-21T07:32:20;99229.44;;;7.76;71.45
21960;BME280;11144;43.030;25.108;2023-11-21T07:33:52;99226.59;;;8.02;70.90
21960;BME280;11144;43.030;25.108;2023-11-21T07:35:27;99223.78;;;8.19;71.29
21960;BME280;11144;43.030;25.108;2023-11-21T07:36:59;99229.94;;;8.35;69.88
21960;BME280;11144;43.030;25.108;2023-11-21T07:38:33;99231.31;;;8.61;69.65
21960;BME280;11144;43.030;25.108;2023-11-21T07:40:06;99230.84;;;8.88;70.44
21960;BME280;11144;43.030;25.108;2023-11-21T07:41:41;99223.06;;;9.03;68.85
21960;BME280;11144;43.030;25.108;2023-11-21T07:43:17;99231.41;;;8.76;67.34
21960;BME280;11144;43.030;25.108;2023-11-21T07:44:51;99224.34;;;8.46;68.21
21960;BME280;11144;43.030;25.108;2023-11-21T07:46:23;99229.25;;;8.49;68.06
21960;BME280;11144;43.030;25.108;2023-11-21T07:47:58;99223.19;;;8.48;67.99
21960;BME280;11144;43.030;25.108;2023-11-21T07:49:32;99224.41;;;8.38;65.64
21960;BME280;11144;43.030;25.108;2023-11-21T07:51:06;99218.84;;;8.33;67.30
21960;BME280;11144;43.030;25.108;2023-11-21T07:52:40;99214.97;;;8.29;66.49
21960;BME280;11144;43.030;25.108;2023-11-21T07:54:12;99223.13;;;8.26;67.07
21960;BME280;11144;43.030;25.108;2023-11-21T07:55:46;99218.38;;;8.21;65.93
21960;BME280;11144;43.030;25.108;2023-11-21T07:57:19;99225.47;;;7.88;66.43
21960;BME280;11144;43.030;25.108;2023-11-21T07:58:51;99225.31;;;7.90;65.79
21960;BME280;11144;43.030;25.108;2023-11-21T08:00:25;99229.94;;;7.72;66.48
21960;BME280;11144;43.030;25.108;2023-11-21T08:02:02;99229.41;;;7.68;66.60
21960;BME280;11144;43.030;25.108;2023-11-21T08:03:35;99224.03;;;7.78;66.98
21960;BME280;11144;43.030;25.108;2023-11-21T08:05:08;99224.81;;;8.02;67.13
21960;BME280;11144;43.030;25.108;2023-11-21T08:06:54;99215.72;;;8.37;67.38
21960;BME280;11144;43.030;25.108;2023-11-21T08:08:27;99209.81;;;8.74;66.74
21960;BME280;11144;43.030;25.108;2023-11-21T08:10:00;99209.91;;;8.88;65.77
21960;BME280;11144;43.030;25.108;2023-11-21T08:11:33;99204.00;;;8.95;65.62
21960;BME280;11144;43.030;25.108;2023-11-21T08:13:05;99207.72;;;9.00;64.79
21960;BME280;11144;43.030;25.108;2023-11-21T08:14:41;99197.84;;;9.33;64.74
21960;BME280;11144;43.030;25.108;2023-11-21T08:16:14;99194.03;;;9.73;65.17